This is the latest recevied weather packets stored in our database for station/object WE1C. If no packets are shown the sender has not sent any weather packets the latest 10 day(s).
| Time | Temp. | Humidity | Pressure | Rain* | Wind** | Luminosity | Snow |
|---|---|---|---|---|---|---|---|
| 1777749346 | 10° C | 82% | 1039.3 hPa | 0 mm | - | 203 W/m² | - |
| 1777749044 | 9.44° C | 83% | 1039.2 hPa | 0 mm | - | 206 W/m² | - |
| 1777748742 | 9.44° C | 85% | 1039.5 hPa | 0 mm | - | 122 W/m² | - |
| 1777748438 | 9.44° C | 85% | 1039.5 hPa | 0 mm | - | 99 W/m² | - |
| 1777748133 | 9.44° C | 84% | 1039.3 hPa | 0 mm | - | 83 W/m² | - |
| 1777747830 | 9.44° C | 83% | 1039.5 hPa | 0 mm | - | 38 W/m² | - |
| 1777747526 | 9.44° C | 82% | 1039.3 hPa | 0 mm | - | 29 W/m² | - |
| 1777747222 | 10.56° C | 79% | 1039.5 hPa | 0 mm | - | 14 W/m² | - |
| 1777746919 | 11.67° C | 74% | 1039.3 hPa | 0 mm | - | 23 W/m² | - |
| 1777746615 | 12.22° C | 70% | 1039.2 hPa | 0 mm | - | 86 W/m² | - |
| 1777746309 | 12.22° C | 70% | 1039.1 hPa | 0 mm | - | 218 W/m² | - |
| 1777746006 | 11.67° C | 71% | 1039.3 hPa | 0 mm | - | 266 W/m² | - |
| 1777745704 | 11.67° C | 70% | 1039.3 hPa | 0 mm | - | 213 W/m² | - |
| 1777745403 | 11.67° C | 71% | 1039.4 hPa | 0 mm | - | 242 W/m² | - |
| 1777745099 | 11.67° C | 70% | 1039.1 hPa | 0 mm | - | 180 W/m² | - |
| 1777744796 | 11.67° C | 70% | 1039.5 hPa | 0 mm | - | 144 W/m² | - |
| 1777744490 | 11.67° C | 69% | 1039.4 hPa | 0 mm | - | 168 W/m² | - |
| 1777744187 | 12.22° C | 69% | 1039.5 hPa | 0 mm | - | 233 W/m² | - |
| 1777743884 | 12.22° C | 70% | 1039.2 hPa | 0 mm | - | 358 W/m² | - |
| 1777743580 | 12.22° C | 69% | 1039.3 hPa | 0 mm | - | 365 W/m² | - |
| 1777743277 | 12.22° C | 71% | 1039.2 hPa | 0 mm | - | 590 W/m² | - |
| 1777742976 | 11.67° C | 71% | 1039.5 hPa | 0 mm | - | 464 W/m² | - |
| 1777742672 | 11.67° C | 71% | 1039.6 hPa | 0 mm | - | 348 W/m² | - |
| 1777742369 | 11.11° C | 72% | 1039.3 hPa | 0 mm | - | 335 W/m² | - |
| 1777742064 | 11.67° C | 73% | 1039.7 hPa | 0 mm | - | 233 W/m² | - |
* Rain latest hour (hover to see other rain measurements)
** Current wind speed in m/s (hover to see current wind gust speed)